createdAt,value
2019-02-06T00:06:11.883Z,22.17
2019-02-06T00:08:51.919Z,24.23
2019-02-06T00:11:31.158Z,26.13
2019-02-06T00:14:11.200Z,23.60
2019-02-06T00:19:33.571Z,21.43
2019-02-06T00:22:13.445Z,21.83
2019-02-06T00:24:53.683Z,22.40
2019-02-06T00:27:33.811Z,21.20
2019-02-06T00:30:17.689Z,21.77
2019-02-06T00:32:57.746Z,21.27
2019-02-06T00:35:37.594Z,22.30
2019-02-06T00:38:16.805Z,19.73
2019-02-06T00:40:56.739Z,18.53
2019-02-06T00:43:36.737Z,18.87
2019-02-06T00:49:41.393Z,18.33
2019-02-06T00:52:21.388Z,18.23
2019-02-06T00:55:01.145Z,18.83
2019-02-06T00:57:42.837Z,19.00
2019-02-06T01:00:21.956Z,20.27
2019-02-06T01:03:03.055Z,20.10
2019-02-06T01:05:42.263Z,19.10
2019-02-06T01:08:21.369Z,17.83
2019-02-06T01:11:00.517Z,18.50
2019-02-06T01:16:43.310Z,19.00
2019-02-06T01:19:22.611Z,16.60
2019-02-06T01:22:02.754Z,15.20
2019-02-06T01:24:41.791Z,15.47
2019-02-06T01:27:25.670Z,16.63
2019-02-06T01:30:06.266Z,16.73
2019-02-06T01:32:45.892Z,17.00
2019-02-06T01:35:25.934Z,17.07
2019-02-06T01:38:05.054Z,15.87
2019-02-06T01:40:44.285Z,16.40
2019-02-06T01:43:24.175Z,16.67
2019-02-06T01:48:46.439Z,15.07
2019-02-06T01:51:26.261Z,17.53
2019-02-06T01:57:31.784Z,15.40
2019-02-06T02:03:19.340Z,14.57
2019-02-06T02:06:02.305Z,15.13
2019-02-06T02:08:41.347Z,15.23
2019-02-06T02:11:21.372Z,15.50
2019-02-06T02:14:01.348Z,15.43
2019-02-06T02:16:40.611Z,11.33
2019-02-06T02:19:19.655Z,11.10
2019-02-06T02:21:59.487Z,10.33
2019-02-06T02:28:03.150Z,10.70
2019-02-06T02:30:45.331Z,7.90
2019-02-06T02:33:24.831Z,10.00
2019-02-06T02:36:15.297Z,7.50
2019-02-06T02:38:47.850Z,7.33
2019-02-06T02:51:36.072Z,6.90
2019-02-06T02:57:40.087Z,7.83
2019-02-06T03:03:47.228Z,6.80
2019-02-06T03:06:28.505Z,7.80
2019-02-06T03:09:07.652Z,6.67
2019-02-06T03:11:46.909Z,6.90
2019-02-06T03:14:26.903Z,6.93
2019-02-06T03:17:06.888Z,7.10
2019-02-06T03:19:46.813Z,7.30
2019-02-06T03:22:26.829Z,6.20
2019-02-06T03:25:07.025Z,6.40
2019-02-06T03:28:06.057Z,7.23
2019-02-06T03:30:49.158Z,6.93
2019-02-06T03:33:28.525Z,6.40
2019-02-06T03:39:14.747Z,7.53
2019-02-06T03:41:54.859Z,7.00
2019-02-06T03:44:33.956Z,7.43
2019-02-06T03:47:14.925Z,7.77
2019-02-06T03:53:13.373Z,6.97
2019-02-06T03:55:53.459Z,6.90
2019-02-06T03:58:52.564Z,7.10
2019-02-06T04:01:31.832Z,7.70
2019-02-06T04:04:11.946Z,8.50
2019-02-06T04:09:34.064Z,8.87
2019-02-06T04:12:14.075Z,6.43
2019-02-06T04:14:57.228Z,7.53
2019-02-06T04:20:18.636Z,8.40
2019-02-06T04:22:58.729Z,7.70
2019-02-06T04:25:38.748Z,7.53
2019-02-06T04:28:18.729Z,7.37
2019-02-06T04:30:58.826Z,6.77
2019-02-06T04:33:38.848Z,7.40
2019-02-06T04:36:22.856Z,7.57
2019-02-06T04:39:02.099Z,7.40
2019-02-06T04:41:41.993Z,7.23
2019-02-06T04:44:22.051Z,6.57
2019-02-06T04:47:02.126Z,7.40
2019-02-06T04:50:02.053Z,7.90
2019-02-06T04:52:41.485Z,6.97
2019-02-06T04:55:20.841Z,7.60
2019-02-06T04:58:00.996Z,6.90
2019-02-06T05:00:40.166Z,7.40
2019-02-06T05:03:20.239Z,7.77
2019-02-06T05:06:00.472Z,7.20
2019-02-06T05:08:40.584Z,7.23
2019-02-06T05:11:19.716Z,6.60
2019-02-06T05:13:59.760Z,7.53
2019-02-06T05:16:39.821Z,7.50
2019-02-06T05:19:19.913Z,8.40
2019-02-06T05:22:00.012Z,6.97
2019-02-06T05:24:40.034Z,6.13
2019-02-06T05:27:23.590Z,7.30
2019-02-06T05:30:03.170Z,8.43
2019-02-06T05:32:43.197Z,7.30
2019-02-06T05:35:22.414Z,7.23
2019-02-06T05:38:02.433Z,6.77
2019-02-06T05:40:42.322Z,6.33
2019-02-06T05:43:21.510Z,6.00
2019-02-06T05:46:01.557Z,6.65
2019-02-06T05:48:41.856Z,7.00
2019-02-06T05:51:21.737Z,6.63
2019-02-06T05:54:00.946Z,6.60
2019-02-06T06:00:05.520Z,6.67
2019-02-06T06:02:45.635Z,7.00
2019-02-06T06:05:25.568Z,6.40
2019-02-06T06:08:05.557Z,6.50
2019-02-06T06:10:45.635Z,6.97
2019-02-06T06:20:37.223Z,6.53
2019-02-06T06:23:34.447Z,6.97
2019-02-06T06:26:13.939Z,6.97
2019-02-06T06:28:53.325Z,6.77
2019-02-06T06:31:33.407Z,6.90
2019-02-06T06:34:13.532Z,5.87
2019-02-06T06:36:52.696Z,6.20
2019-02-06T06:39:37.812Z,6.80
2019-02-06T06:42:17.952Z,6.60
2019-02-06T06:44:58.072Z,5.90
2019-02-06T06:47:38.168Z,6.60
2019-02-06T06:50:18.131Z,6.10
2019-02-06T06:52:58.216Z,6.00
2019-02-06T06:55:38.177Z,6.83
2019-02-06T06:58:18.409Z,6.20
2019-02-06T07:01:02.397Z,6.83
2019-02-06T07:03:41.861Z,5.70
2019-02-06T07:06:25.416Z,5.40
2019-02-06T07:09:05.124Z,6.40
2019-02-06T07:11:45.270Z,5.57
2019-02-06T07:14:24.424Z,6.10
2019-02-06T07:24:12.805Z,6.67
2019-02-06T07:26:52.902Z,5.57
2019-02-06T07:29:36.894Z,5.73
2019-02-06T07:32:16.508Z,6.07
2019-02-06T07:34:56.366Z,5.80
2019-02-06T07:37:36.283Z,6.60
2019-02-06T07:40:15.502Z,6.90
2019-02-06T07:42:55.532Z,6.43
2019-02-06T07:45:34.775Z,6.13
2019-02-06T07:48:14.784Z,10.83
2019-02-06T07:50:54.590Z,6.70
2019-02-06T07:53:33.882Z,6.87
2019-02-06T07:56:14.102Z,6.33
2019-02-06T07:58:54.107Z,7.00
2019-02-06T08:01:37.778Z,7.00
2019-02-06T08:04:17.313Z,6.73
2019-02-06T08:06:57.288Z,6.20
2019-02-06T08:09:37.336Z,7.80
2019-02-06T08:12:17.238Z,7.87
2019-02-06T08:14:57.325Z,7.53
2019-02-06T08:17:37.485Z,7.30
2019-02-06T08:20:17.530Z,7.17
2019-02-06T08:22:57.639Z,7.40
2019-02-06T08:25:37.730Z,6.27
2019-02-06T08:28:17.708Z,6.10
2019-02-06T08:30:56.831Z,6.90
2019-02-06T08:33:36.847Z,7.47
2019-02-06T08:36:16.077Z,6.10
2019-02-06T08:38:56.167Z,6.20
2019-02-06T08:41:36.212Z,4.97
2019-02-06T08:44:16.267Z,5.93
2019-02-06T08:46:56.339Z,5.30
2019-02-06T08:49:36.320Z,5.60
2019-02-06T08:52:16.463Z,5.40
2019-02-06T08:54:56.423Z,5.33
2019-02-06T08:57:36.368Z,5.27
2019-02-06T09:03:24.481Z,6.30
2019-02-06T09:06:04.508Z,5.33
2019-02-06T09:08:44.732Z,5.30
2019-02-06T09:18:15.531Z,6.67
2019-02-06T09:20:55.715Z,5.30
2019-02-06T09:23:35.646Z,4.90
2019-02-06T09:26:15.788Z,5.13
2019-02-06T09:28:54.987Z,5.33
2019-02-06T09:31:34.938Z,5.47
2019-02-06T09:34:14.217Z,5.20
2019-02-06T09:36:54.221Z,5.23
2019-02-06T09:39:34.307Z,4.73
2019-02-06T09:42:14.492Z,4.50
2019-02-06T09:44:54.513Z,5.53
2019-02-06T09:47:34.579Z,4.50
2019-02-06T09:50:14.552Z,5.60
2019-02-06T09:52:54.639Z,5.53
2019-02-06T09:55:34.732Z,22.30
2019-02-06T09:58:14.743Z,9.27
2019-02-06T10:03:36.940Z,5.90
2019-02-06T10:06:17.006Z,6.30
2019-02-06T10:08:56.276Z,6.83
2019-02-06T10:11:36.338Z,6.37
2019-02-06T10:14:15.580Z,6.50
2019-02-06T10:16:54.742Z,6.20
2019-02-06T10:19:34.787Z,5.57
2019-02-06T10:22:14.828Z,5.47
2019-02-06T10:24:54.830Z,5.90
2019-02-06T10:27:35.676Z,5.77
2019-02-06T10:30:15.674Z,6.70
2019-02-06T10:32:55.544Z,5.57
2019-02-06T10:35:35.576Z,5.63
2019-02-06T10:38:15.635Z,5.30
2019-02-06T10:40:55.716Z,5.60
2019-02-06T10:43:35.912Z,4.93
2019-02-06T10:46:18.197Z,4.80
2019-02-06T10:48:56.391Z,5.20
2019-02-06T10:51:36.588Z,4.70
2019-02-06T10:56:58.260Z,4.30
2019-02-06T10:59:38.386Z,5.07
2019-02-06T11:05:37.389Z,5.67
2019-02-06T11:08:17.331Z,4.90
2019-02-06T11:10:56.538Z,4.00
2019-02-06T11:13:35.824Z,5.00
2019-02-06T11:16:15.278Z,5.00
2019-02-06T11:18:54.457Z,5.57
2019-02-06T11:21:34.638Z,4.47
2019-02-06T11:26:56.751Z,4.63
2019-02-06T11:29:37.043Z,4.07
2019-02-06T11:32:16.264Z,4.83
2019-02-06T11:34:56.252Z,4.33
2019-02-06T11:37:36.158Z,5.00
2019-02-06T11:40:35.206Z,4.33
2019-02-06T11:43:14.915Z,4.20
2019-02-06T11:45:54.607Z,4.23
2019-02-06T11:48:35.671Z,4.07
2019-02-06T11:51:14.956Z,5.03
2019-02-06T11:53:58.884Z,6.00
2019-02-06T11:56:38.065Z,5.77
2019-02-06T12:02:42.854Z,5.00
2019-02-06T12:05:22.052Z,6.90
2019-02-06T12:08:01.863Z,6.50
2019-02-06T12:10:41.823Z,6.03
2019-02-06T12:13:20.875Z,6.50
2019-02-06T12:15:59.937Z,5.23
2019-02-06T12:18:39.966Z,5.57
2019-02-06T12:21:23.765Z,5.03
2019-02-06T12:24:03.520Z,5.00
2019-02-06T12:26:43.364Z,6.07
2019-02-06T12:29:23.439Z,5.07
2019-02-06T12:32:03.335Z,4.40
2019-02-06T12:34:43.208Z,5.33
2019-02-06T12:37:22.314Z,4.80
2019-02-06T12:40:01.498Z,5.20
2019-02-06T12:42:41.646Z,5.13
2019-02-06T12:45:20.918Z,5.23
2019-02-06T12:48:01.132Z,5.27
2019-02-06T12:50:41.217Z,5.30
2019-02-06T12:56:03.264Z,4.37
2019-02-06T12:58:42.432Z,4.93
2019-02-06T13:01:22.368Z,5.07
2019-02-06T13:04:01.690Z,4.63
2019-02-06T13:06:41.025Z,4.80
2019-02-06T13:09:21.120Z,4.83
2019-02-06T13:12:01.124Z,4.40
2019-02-06T13:14:41.140Z,5.10
2019-02-06T13:17:20.312Z,4.27
2019-02-06T13:20:00.371Z,4.50
2019-02-06T13:22:40.699Z,4.90
2019-02-06T13:28:01.966Z,5.13
2019-02-06T13:30:42.171Z,4.60
2019-02-06T13:33:22.336Z,4.23
2019-02-06T13:36:04.381Z,5.50
2019-02-06T13:38:44.494Z,5.27
2019-02-06T13:41:24.338Z,4.80
2019-02-06T13:44:04.363Z,4.70
2019-02-06T13:46:52.948Z,5.00
2019-02-06T13:49:25.522Z,5.60
2019-02-06T13:52:04.600Z,6.60
2019-02-06T13:54:43.829Z,5.60
2019-02-06T13:57:43.713Z,5.40
2019-02-06T14:00:23.058Z,5.60
2019-02-06T14:03:02.245Z,4.63
2019-02-06T14:05:41.671Z,4.10
2019-02-06T14:08:21.827Z,4.87
2019-02-06T14:11:01.693Z,6.33
2019-02-06T14:16:49.925Z,5.23
2019-02-06T14:19:29.886Z,4.97
2019-02-06T14:22:10.061Z,4.10
2019-02-06T14:24:50.117Z,5.00
2019-02-06T14:27:30.233Z,4.17
2019-02-06T14:30:12.131Z,4.57
2019-02-06T14:32:51.273Z,4.30
2019-02-06T14:35:32.212Z,4.40
2019-02-06T14:38:12.374Z,4.77
2019-02-06T14:40:51.490Z,4.63
2019-02-06T14:43:31.445Z,4.33
2019-02-06T14:46:11.560Z,3.70
2019-02-06T14:48:51.581Z,4.53
2019-02-06T14:51:31.596Z,5.27
2019-02-06T14:57:18.732Z,4.20
2019-02-06T14:59:58.786Z,4.43
2019-02-06T15:02:38.941Z,4.50
2019-02-06T15:05:17.985Z,4.30
2019-02-06T15:07:57.216Z,4.80
2019-02-06T15:10:37.164Z,5.10
2019-02-06T15:13:16.287Z,5.10
2019-02-06T15:19:35.688Z,4.83
2019-02-06T15:22:15.596Z,4.67
2019-02-06T15:28:18.114Z,4.57
2019-02-06T15:30:57.197Z,5.43
2019-02-06T15:33:36.313Z,4.87
2019-02-06T15:36:16.244Z,5.17
2019-02-06T15:38:56.351Z,4.70
2019-02-06T15:41:35.528Z,5.30
2019-02-06T15:44:15.619Z,5.30
2019-02-06T15:46:55.729Z,5.17
2019-02-06T15:49:35.787Z,4.87
2019-02-06T15:52:15.094Z,4.90
2019-02-06T15:54:55.163Z,5.27
2019-02-06T15:57:35.414Z,5.20
2019-02-06T16:10:23.605Z,5.60
2019-02-06T16:15:44.766Z,17.30
2019-02-06T16:18:23.915Z,11.47
2019-02-06T16:21:03.311Z,4.90
2019-02-06T16:26:25.628Z,5.70
2019-02-06T16:29:04.846Z,5.80
2019-02-06T16:31:46.812Z,5.10
2019-02-06T16:34:26.073Z,5.40
2019-02-06T16:37:05.295Z,6.07
2019-02-06T16:39:45.339Z,5.80
2019-02-06T16:42:24.646Z,6.00
2019-02-06T16:45:03.845Z,4.70
2019-02-06T16:47:45.918Z,8.30
2019-02-06T16:50:24.992Z,6.60
2019-02-06T16:53:04.845Z,6.23
2019-02-06T16:55:47.929Z,5.03
2019-02-06T16:58:27.405Z,5.07
2019-02-06T17:01:07.389Z,4.80
2019-02-06T17:03:49.629Z,5.43
2019-02-06T17:06:28.712Z,5.27
2019-02-06T17:09:08.725Z,8.03
2019-02-06T17:11:49.000Z,7.50
2019-02-06T17:14:28.989Z,4.90
2019-02-06T17:17:08.953Z,5.10
2019-02-06T17:19:48.149Z,5.70
2019-02-06T17:22:28.188Z,5.37
2019-02-06T17:25:08.190Z,5.90
2019-02-06T17:27:48.220Z,5.40
2019-02-06T17:30:28.187Z,5.67
2019-02-06T17:33:08.193Z,5.10
2019-02-06T17:35:51.272Z,5.40
2019-02-06T17:38:30.472Z,5.83
2019-02-06T17:41:11.824Z,5.40
2019-02-06T17:43:51.937Z,4.57
2019-02-06T17:46:32.076Z,5.57
2019-02-06T17:49:11.307Z,6.27
2019-02-06T17:51:51.322Z,5.30
2019-02-06T17:54:31.605Z,4.50
2019-02-06T17:57:11.407Z,4.43
2019-02-06T17:59:51.502Z,5.10
2019-02-06T18:02:31.435Z,5.20
2019-02-06T18:05:11.485Z,5.07
2019-02-06T18:07:51.683Z,5.10
2019-02-06T18:10:31.774Z,5.10
2019-02-06T18:13:11.754Z,6.10
2019-02-06T18:15:50.986Z,4.80
2019-02-06T18:18:30.990Z,6.00
2019-02-06T18:24:19.924Z,5.63
2019-02-06T18:27:00.045Z,5.13
2019-02-06T18:32:48.534Z,4.90
2019-02-06T18:35:28.679Z,4.57
2019-02-06T18:38:07.969Z,5.23
2019-02-06T18:40:48.271Z,4.70
2019-02-06T18:43:28.315Z,4.73
2019-02-06T18:46:07.629Z,5.10
2019-02-06T18:48:47.627Z,4.50
2019-02-06T18:51:26.901Z,4.20
2019-02-06T18:57:50.109Z,5.20
2019-02-06T19:00:32.281Z,4.10
2019-02-06T19:03:11.519Z,4.27
2019-02-06T19:08:33.357Z,4.70
2019-02-06T19:11:13.516Z,4.40
2019-02-06T19:16:35.994Z,4.53
2019-02-06T19:22:41.071Z,5.10
2019-02-06T19:25:23.855Z,4.70
2019-02-06T19:28:02.424Z,5.00
2019-02-06T19:30:42.393Z,5.10
2019-02-06T19:33:22.501Z,5.37
2019-02-06T19:36:02.555Z,4.93
2019-02-06T19:38:42.686Z,4.77
2019-02-06T19:41:22.914Z,4.53
2019-02-06T19:47:15.700Z,4.40
2019-02-06T19:49:55.034Z,4.83
2019-02-06T19:52:34.899Z,4.77
2019-02-06T19:55:34.849Z,4.40
2019-02-06T19:58:14.032Z,4.80
2019-02-06T20:00:54.023Z,4.40
2019-02-06T20:03:34.148Z,4.60
2019-02-06T20:09:18.373Z,5.20
2019-02-06T20:11:58.307Z,5.50
2019-02-06T20:14:38.391Z,4.93
2019-02-06T20:17:17.645Z,5.60
2019-02-06T20:19:57.905Z,4.83
2019-02-06T20:22:37.898Z,5.60
2019-02-06T20:25:17.947Z,5.90
2019-02-06T20:27:57.123Z,6.43
2019-02-06T20:30:37.221Z,6.10
2019-02-06T20:33:17.259Z,4.90
2019-02-06T20:35:57.440Z,5.43
2019-02-06T20:38:37.516Z,6.10
2019-02-06T20:41:16.755Z,5.50
2019-02-06T20:47:22.172Z,5.87
2019-02-06T20:50:02.269Z,5.17
2019-02-06T20:52:42.258Z,5.70
2019-02-06T20:55:21.439Z,5.63
2019-02-06T20:58:00.724Z,5.30
2019-02-06T21:00:40.822Z,5.70
2019-02-06T21:03:20.077Z,6.17
2019-02-06T21:06:00.142Z,5.63
2019-02-06T21:08:40.167Z,6.70
2019-02-06T21:11:20.457Z,6.33
2019-02-06T21:14:00.475Z,5.77
2019-02-06T21:16:39.749Z,5.97
2019-02-06T21:19:19.705Z,5.63
2019-02-06T21:21:59.678Z,5.20
2019-02-06T21:27:48.693Z,5.83
2019-02-06T21:30:48.549Z,5.67
2019-02-06T21:33:27.972Z,6.07
2019-02-06T21:42:12.313Z,5.40
2019-02-06T21:44:52.327Z,5.73
2019-02-06T21:47:32.406Z,5.70
2019-02-06T21:50:11.672Z,7.40
2019-02-06T21:52:50.984Z,5.90
2019-02-06T21:55:31.100Z,6.07
2019-02-06T21:58:11.274Z,6.07
2019-02-06T22:00:50.503Z,5.80
2019-02-06T22:03:33.842Z,6.33
2019-02-06T22:06:13.053Z,6.37
2019-02-06T22:08:52.272Z,6.63
2019-02-06T22:14:56.902Z,6.77
2019-02-06T22:17:56.008Z,5.93
2019-02-06T22:20:35.657Z,7.30
2019-02-06T22:23:14.981Z,6.37
2019-02-06T22:25:55.158Z,6.60
2019-02-06T22:28:35.389Z,5.90
2019-02-06T22:37:28.377Z,6.07
2019-02-06T22:42:50.581Z,6.57
2019-02-06T22:45:30.648Z,6.03
2019-02-06T22:48:10.738Z,7.07
2019-02-06T22:50:50.792Z,6.40
2019-02-06T22:53:30.952Z,6.10
2019-02-06T22:56:10.055Z,7.00
2019-02-06T22:58:50.207Z,7.27
2019-02-06T23:01:30.124Z,6.60
2019-02-06T23:04:09.324Z,7.10
2019-02-06T23:06:48.673Z,6.93
2019-02-06T23:09:28.686Z,6.93
2019-02-06T23:12:08.634Z,8.53
2019-02-06T23:14:48.020Z,8.20
2019-02-06T23:17:27.856Z,7.20
2019-02-06T23:20:06.967Z,7.00
2019-02-06T23:22:50.149Z,7.73
2019-02-06T23:28:13.573Z,7.00
2019-02-06T23:30:52.861Z,6.60
2019-02-06T23:33:36.339Z,7.77
2019-02-06T23:36:16.218Z,7.43
2019-02-06T23:38:55.408Z,6.30
2019-02-06T23:41:35.429Z,8.80
2019-02-06T23:44:14.568Z,7.10
2019-02-06T23:46:56.188Z,7.33
2019-02-06T23:49:34.855Z,7.40
2019-02-06T23:52:18.944Z,7.23
2019-02-06T23:54:58.308Z,7.07
2019-02-06T23:57:38.126Z,7.20
